sensor_id;sensor_type;location;lat;lon;timestamp;temperature;humidity
13336;DHT22;6737;51.480;11.962;2023-02-13T00:00:23;7.10;99.90
13336;DHT22;6737;51.480;11.962;2023-02-13T00:02:50;7.10;99.90
13336;DHT22;6737;51.480;11.962;2023-02-13T00:05:16;7.10;99.90
13336;DHT22;6737;51.480;11.962;2023-02-13T00:07:43;7.10;99.90
13336;DHT22;6737;51.480;11.962;2023-02-13T00:10:09;7.10;99.90
13336;DHT22;6737;51.480;11.962;2023-02-13T00:12:35;7.00;99.90
13336;DHT22;6737;51.480;11.962;2023-02-13T00:15:01;7.00;99.90
13336;DHT22;6737;51.480;11.962;2023-02-13T00:17:27;7.10;99.90
13336;DHT22;6737;51.480;11.962;2023-02-13T00:19:52;7.10;99.90
13336;DHT22;6737;51.480;11.962;2023-02-13T00:22:18;7.10;99.90
13336;DHT22;6737;51.480;11.962;2023-02-13T00:24:44;7.10;99.90
13336;DHT22;6737;51.480;11.962;2023-02-13T00:27:10;7.10;99.90
13336;DHT22;6737;51.480;11.962;2023-02-13T00:29:36;7.10;99.90
13336;DHT22;6737;51.480;11.962;2023-02-13T00:32:01;7.10;99.90
13336;DHT22;6737;51.480;11.962;2023-02-13T00:34:27;7.10;99.90
13336;DHT22;6737;51.480;11.962;2023-02-13T00:36:53;7.10;99.90
13336;DHT22;6737;51.480;11.962;2023-02-13T00:39:19;7.10;99.90
13336;DHT22;6737;51.480;11.962;2023-02-13T00:41:44;7.10;99.90
13336;DHT22;6737;51.480;11.962;2023-02-13T00:44:10;7.10;99.90
13336;DHT22;6737;51.480;11.962;2023-02-13T00:46:36;7.00;99.90
13336;DHT22;6737;51.480;11.962;2023-02-13T00:49:04;7.10;99.90
13336;DHT22;6737;51.480;11.962;2023-02-13T00:51:30;7.10;99.90
13336;DHT22;6737;51.480;11.962;2023-02-13T00:53:55;7.10;99.90
13336;DHT22;6737;51.480;11.962;2023-02-13T00:56:21;7.10;99.90
13336;DHT22;6737;51.480;11.962;2023-02-13T00:58:47;7.10;99.90
13336;DHT22;6737;51.480;11.962;2023-02-13T01:01:13;7.10;99.90
13336;DHT22;6737;51.480;11.962;2023-02-13T01:03:39;7.10;99.90
13336;DHT22;6737;51.480;11.962;2023-02-13T01:06:06;7.10;99.90
13336;DHT22;6737;51.480;11.962;2023-02-13T01:08:33;7.10;99.90
13336;DHT22;6737;51.480;11.962;2023-02-13T01:10:59;7.10;99.90
13336;DHT22;6737;51.480;11.962;2023-02-13T01:13:25;7.10;99.90
13336;DHT22;6737;51.480;11.962;2023-02-13T01:15:51;7.00;99.90
13336;DHT22;6737;51.480;11.962;2023-02-13T01:18:19;7.00;99.90
13336;DHT22;6737;51.480;11.962;2023-02-13T01:20:54;7.10;99.90
13336;DHT22;6737;51.480;11.962;2023-02-13T01:23:20;7.10;99.90
13336;DHT22;6737;51.480;11.962;2023-02-13T01:25:46;7.10;99.90
13336;DHT22;6737;51.480;11.962;2023-02-13T01:28:12;7.10;99.90
13336;DHT22;6737;51.480;11.962;2023-02-13T01:30:37;7.10;99.90
13336;DHT22;6737;51.480;11.962;2023-02-13T01:33:03;7.10;99.90
13336;DHT22;6737;51.480;11.962;2023-02-13T01:35:29;7.10;99.90
13336;DHT22;6737;51.480;11.962;2023-02-13T01:37:55;7.10;99.90
13336;DHT22;6737;51.480;11.962;2023-02-13T01:40:21;7.10;99.90
13336;DHT22;6737;51.480;11.962;2023-02-13T01:42:47;7.10;99.90
13336;DHT22;6737;51.480;11.962;2023-02-13T01:45:21;7.10;99.90
13336;DHT22;6737;51.480;11.962;2023-02-13T01:50:33;7.10;99.90
13336;DHT22;6737;51.480;11.962;2023-02-13T01:53:21;7.10;99.90
13336;DHT22;6737;51.480;11.962;2023-02-13T01:55:53;7.00;99.90
13336;DHT22;6737;51.480;11.962;2023-02-13T01:58:23;7.00;99.90
13336;DHT22;6737;51.480;11.962;2023-02-13T02:00:49;7.00;99.90
13336;DHT22;6737;51.480;11.962;2023-02-13T02:03:41;7.00;99.90
13336;DHT22;6737;51.480;11.962;2023-02-13T02:06:07;7.00;99.90
13336;DHT22;6737;51.480;11.962;2023-02-13T02:08:35;7.00;99.90
13336;DHT22;6737;51.480;11.962;2023-02-13T02:11:08;7.00;99.90
13336;DHT22;6737;51.480;11.962;2023-02-13T02:13:35;7.10;99.90
13336;DHT22;6737;51.480;11.962;2023-02-13T02:16:02;7.00;99.90
13336;DHT22;6737;51.480;11.962;2023-02-13T02:18:28;7.00;99.90
13336;DHT22;6737;51.480;11.962;2023-02-13T02:21:28;7.00;99.90
13336;DHT22;6737;51.480;11.962;2023-02-13T02:24:31;7.00;99.90
13336;DHT22;6737;51.480;11.962;2023-02-13T02:27:34;7.00;99.90
13336;DHT22;6737;51.480;11.962;2023-02-13T02:38:37;6.90;99.90
13336;DHT22;6737;51.480;11.962;2023-02-13T02:47:17;6.90;99.90
13336;DHT22;6737;51.480;11.962;2023-02-13T02:52:57;6.90;99.90
13336;DHT22;6737;51.480;11.962;2023-02-13T02:55:31;6.90;99.90
13336;DHT22;6737;51.480;11.962;2023-02-13T02:58:12;6.90;99.90
13336;DHT22;6737;51.480;11.962;2023-02-13T03:01:00;6.90;99.90
13336;DHT22;6737;51.480;11.962;2023-02-13T03:03:46;6.90;99.90
13336;DHT22;6737;51.480;11.962;2023-02-13T03:06:36;6.90;99.90
13336;DHT22;6737;51.480;11.962;2023-02-13T03:09:05;6.90;99.90
13336;DHT22;6737;51.480;11.962;2023-02-13T03:11:54;6.90;99.90
13336;DHT22;6737;51.480;11.962;2023-02-13T03:14:39;7.00;99.90
13336;DHT22;6737;51.480;11.962;2023-02-13T03:17:10;7.00;99.90
13336;DHT22;6737;51.480;11.962;2023-02-13T03:25:47;6.90;99.90
13336;DHT22;6737;51.480;11.962;2023-02-13T03:28:18;7.00;99.90
13336;DHT22;6737;51.480;11.962;2023-02-13T03:34:14;6.90;99.90
13336;DHT22;6737;51.480;11.962;2023-02-13T03:44:56;7.00;99.90
13336;DHT22;6737;51.480;11.962;2023-02-13T03:47:43;7.00;99.90
13336;DHT22;6737;51.480;11.962;2023-02-13T03:50:10;6.90;99.90
13336;DHT22;6737;51.480;11.962;2023-02-13T03:58:02;6.90;99.90
13336;DHT22;6737;51.480;11.962;2023-02-13T04:00:51;6.90;99.90
13336;DHT22;6737;51.480;11.962;2023-02-13T04:06:10;6.90;99.90
13336;DHT22;6737;51.480;11.962;2023-02-13T04:08:37;6.90;99.90
13336;DHT22;6737;51.480;11.962;2023-02-13T04:14:00;6.80;99.90
13336;DHT22;6737;51.480;11.962;2023-02-13T04:19:05;6.80;99.90
13336;DHT22;6737;51.480;11.962;2023-02-13T04:21:38;6.80;99.90
13336;DHT22;6737;51.480;11.962;2023-02-13T04:24:05;6.80;99.90
13336;DHT22;6737;51.480;11.962;2023-02-13T04:26:36;6.80;99.90
13336;DHT22;6737;51.480;11.962;2023-02-13T04:29:04;6.70;99.90
13336;DHT22;6737;51.480;11.962;2023-02-13T04:31:29;6.80;99.90
13336;DHT22;6737;51.480;11.962;2023-02-13T04:33:56;6.70;99.90
13336;DHT22;6737;51.480;11.962;2023-02-13T04:36:21;6.60;99.90
13336;DHT22;6737;51.480;11.962;2023-02-13T04:38:47;6.60;99.90
13336;DHT22;6737;51.480;11.962;2023-02-13T04:41:13;6.60;99.90
13336;DHT22;6737;51.480;11.962;2023-02-13T04:43:38;6.60;99.90
13336;DHT22;6737;51.480;11.962;2023-02-13T04:46:04;6.60;99.90
13336;DHT22;6737;51.480;11.962;2023-02-13T04:48:30;6.60;99.90
13336;DHT22;6737;51.480;11.962;2023-02-13T04:50:56;6.60;99.90
13336;DHT22;6737;51.480;11.962;2023-02-13T04:53:22;6.60;99.90
13336;DHT22;6737;51.480;11.962;2023-02-13T04:55:47;6.60;99.90
13336;DHT22;6737;51.480;11.962;2023-02-13T04:58:13;6.60;99.90
13336;DHT22;6737;51.480;11.962;2023-02-13T05:00:39;6.60;99.90
13336;DHT22;6737;51.480;11.962;2023-02-13T05:03:25;6.60;99.90
13336;DHT22;6737;51.480;11.962;2023-02-13T05:05:51;6.60;99.90
13336;DHT22;6737;51.480;11.962;2023-02-13T05:08:17;6.60;99.90
13336;DHT22;6737;51.480;11.962;2023-02-13T05:10:43;6.60;99.90
13336;DHT22;6737;51.480;11.962;2023-02-13T05:13:08;6.60;99.90
13336;DHT22;6737;51.480;11.962;2023-02-13T05:15:34;6.60;99.90
13336;DHT22;6737;51.480;11.962;2023-02-13T05:18:00;6.60;99.90
13336;DHT22;6737;51.480;11.962;2023-02-13T05:20:26;6.60;99.90
13336;DHT22;6737;51.480;11.962;2023-02-13T05:22:53;6.60;99.90
13336;DHT22;6737;51.480;11.962;2023-02-13T05:25:40;6.60;99.90
13336;DHT22;6737;51.480;11.962;2023-02-13T05:28:06;6.60;99.90
13336;DHT22;6737;51.480;11.962;2023-02-13T05:30:52;6.60;99.90
13336;DHT22;6737;51.480;11.962;2023-02-13T05:33:18;6.50;99.90
13336;DHT22;6737;51.480;11.962;2023-02-13T05:35:44;6.60;99.90
13336;DHT22;6737;51.480;11.962;2023-02-13T05:38:10;6.50;99.90
13336;DHT22;6737;51.480;11.962;2023-02-13T05:40:35;6.50;99.90
13336;DHT22;6737;51.480;11.962;2023-02-13T05:43:01;6.60;99.90
13336;DHT22;6737;51.480;11.962;2023-02-13T05:45:27;6.60;99.90
13336;DHT22;6737;51.480;11.962;2023-02-13T05:47:53;6.60;99.90
13336;DHT22;6737;51.480;11.962;2023-02-13T05:50:18;6.60;99.90
13336;DHT22;6737;51.480;11.962;2023-02-13T05:52:44;6.50;99.90
13336;DHT22;6737;51.480;11.962;2023-02-13T05:55:10;6.50;99.90
13336;DHT22;6737;51.480;11.962;2023-02-13T05:57:35;6.50;99.90
13336;DHT22;6737;51.480;11.962;2023-02-13T06:00:02;6.50;99.90
13336;DHT22;6737;51.480;11.962;2023-02-13T06:02:28;6.50;99.90
13336;DHT22;6737;51.480;11.962;2023-02-13T06:04:54;6.50;99.90
13336;DHT22;6737;51.480;11.962;2023-02-13T06:07:20;6.50;99.90
13336;DHT22;6737;51.480;11.962;2023-02-13T06:09:46;6.50;99.90
13336;DHT22;6737;51.480;11.962;2023-02-13T06:12:11;6.50;99.90
13336;DHT22;6737;51.480;11.962;2023-02-13T06:14:37;6.50;99.90
13336;DHT22;6737;51.480;11.962;2023-02-13T06:17:03;6.50;99.90
13336;DHT22;6737;51.480;11.962;2023-02-13T06:19:28;6.50;99.90
13336;DHT22;6737;51.480;11.962;2023-02-13T06:21:54;6.50;99.90
13336;DHT22;6737;51.480;11.962;2023-02-13T06:24:20;6.40;99.90
13336;DHT22;6737;51.480;11.962;2023-02-13T06:26:46;6.40;99.90
13336;DHT22;6737;51.480;11.962;2023-02-13T06:29:12;6.40;99.90
13336;DHT22;6737;51.480;11.962;2023-02-13T06:31:38;6.40;99.90
13336;DHT22;6737;51.480;11.962;2023-02-13T06:34:04;6.40;99.90
13336;DHT22;6737;51.480;11.962;2023-02-13T06:36:30;6.30;99.90
13336;DHT22;6737;51.480;11.962;2023-02-13T06:38:55;6.40;99.90
13336;DHT22;6737;51.480;11.962;2023-02-13T06:41:21;6.40;99.90
13336;DHT22;6737;51.480;11.962;2023-02-13T06:43:47;6.40;99.90
13336;DHT22;6737;51.480;11.962;2023-02-13T06:46:12;6.40;99.90
13336;DHT22;6737;51.480;11.962;2023-02-13T06:48:38;6.30;99.90
13336;DHT22;6737;51.480;11.962;2023-02-13T06:51:04;6.30;99.90
13336;DHT22;6737;51.480;11.962;2023-02-13T06:53:30;6.40;99.90
13336;DHT22;6737;51.480;11.962;2023-02-13T06:55:56;6.40;99.90
13336;DHT22;6737;51.480;11.962;2023-02-13T06:58:23;6.40;99.90
13336;DHT22;6737;51.480;11.962;2023-02-13T07:00:50;6.40;99.90
13336;DHT22;6737;51.480;11.962;2023-02-13T07:03:16;6.40;99.90
13336;DHT22;6737;51.480;11.962;2023-02-13T07:05:43;6.40;99.90
13336;DHT22;6737;51.480;11.962;2023-02-13T07:08:10;6.40;99.90
13336;DHT22;6737;51.480;11.962;2023-02-13T07:10:40;6.40;99.90
13336;DHT22;6737;51.480;11.962;2023-02-13T07:13:06;6.40;99.90
13336;DHT22;6737;51.480;11.962;2023-02-13T07:15:33;6.40;99.90
13336;DHT22;6737;51.480;11.962;2023-02-13T07:18:00;6.40;99.90
13336;DHT22;6737;51.480;11.962;2023-02-13T07:20:26;6.50;99.90
13336;DHT22;6737;51.480;11.962;2023-02-13T07:22:52;6.50;99.90
13336;DHT22;6737;51.480;11.962;2023-02-13T07:25:18;6.50;99.90
13336;DHT22;6737;51.480;11.962;2023-02-13T07:27:44;6.50;99.90
13336;DHT22;6737;51.480;11.962;2023-02-13T07:30:10;6.60;99.90
13336;DHT22;6737;51.480;11.962;2023-02-13T07:32:36;6.60;99.90
13336;DHT22;6737;51.480;11.962;2023-02-13T07:35:02;6.60;99.90
13336;DHT22;6737;51.480;11.962;2023-02-13T07:37:29;6.60;99.90
13336;DHT22;6737;51.480;11.962;2023-02-13T07:39:55;6.60;99.90
13336;DHT22;6737;51.480;11.962;2023-02-13T07:42:21;6.60;99.90
13336;DHT22;6737;51.480;11.962;2023-02-13T07:44:47;6.60;99.90
13336;DHT22;6737;51.480;11.962;2023-02-13T07:47:13;6.60;99.90
13336;DHT22;6737;51.480;11.962;2023-02-13T07:49:38;6.60;99.90
13336;DHT22;6737;51.480;11.962;2023-02-13T07:52:05;6.70;99.90
13336;DHT22;6737;51.480;11.962;2023-02-13T07:54:31;6.70;99.90
13336;DHT22;6737;51.480;11.962;2023-02-13T07:56:58;6.70;99.90
13336;DHT22;6737;51.480;11.962;2023-02-13T07:59:24;6.80;99.90
13336;DHT22;6737;51.480;11.962;2023-02-13T08:01:50;6.80;99.90
13336;DHT22;6737;51.480;11.962;2023-02-13T08:04:16;6.80;99.90
13336;DHT22;6737;51.480;11.962;2023-02-13T08:06:42;6.80;99.90
13336;DHT22;6737;51.480;11.962;2023-02-13T08:09:17;6.80;99.90
13336;DHT22;6737;51.480;11.962;2023-02-13T08:12:03;6.90;99.90
13336;DHT22;6737;51.480;11.962;2023-02-13T08:14:29;6.90;99.90
13336;DHT22;6737;51.480;11.962;2023-02-13T08:16:57;6.90;99.90
13336;DHT22;6737;51.480;11.962;2023-02-13T08:19:23;6.90;99.90
13336;DHT22;6737;51.480;11.962;2023-02-13T08:21:49;6.90;99.90
13336;DHT22;6737;51.480;11.962;2023-02-13T08:24:14;6.90;99.90
13336;DHT22;6737;51.480;11.962;2023-02-13T08:26:40;7.00;99.90
13336;DHT22;6737;51.480;11.962;2023-02-13T08:29:06;7.00;99.90
13336;DHT22;6737;51.480;11.962;2023-02-13T08:31:32;7.00;99.90
13336;DHT22;6737;51.480;11.962;2023-02-13T08:33:58;7.00;99.90
13336;DHT22;6737;51.480;11.962;2023-02-13T08:36:24;7.00;99.90
13336;DHT22;6737;51.480;11.962;2023-02-13T08:38:49;7.00;99.90
13336;DHT22;6737;51.480;11.962;2023-02-13T08:41:15;7.00;99.90
13336;DHT22;6737;51.480;11.962;2023-02-13T08:43:44;7.00;99.90
13336;DHT22;6737;51.480;11.962;2023-02-13T08:46:10;7.00;99.90
13336;DHT22;6737;51.480;11.962;2023-02-13T08:48:36;7.10;99.90
13336;DHT22;6737;51.480;11.962;2023-02-13T08:51:06;7.00;99.90
13336;DHT22;6737;51.480;11.962;2023-02-13T08:53:33;7.10;99.90
13336;DHT22;6737;51.480;11.962;2023-02-13T08:55:59;7.10;99.90
13336;DHT22;6737;51.480;11.962;2023-02-13T08:58:25;7.10;99.90
13336;DHT22;6737;51.480;11.962;2023-02-13T09:00:51;7.10;99.90
13336;DHT22;6737;51.480;11.962;2023-02-13T09:03:17;7.10;99.90
13336;DHT22;6737;51.480;11.962;2023-02-13T09:05:43;7.10;99.90
13336;DHT22;6737;51.480;11.962;2023-02-13T09:08:09;7.20;99.90
13336;DHT22;6737;51.480;11.962;2023-02-13T09:10:39;7.10;99.90
13336;DHT22;6737;51.480;11.962;2023-02-13T09:13:05;7.10;99.90
13336;DHT22;6737;51.480;11.962;2023-02-13T09:15:32;7.10;99.90
13336;DHT22;6737;51.480;11.962;2023-02-13T09:17:58;7.10;99.90
13336;DHT22;6737;51.480;11.962;2023-02-13T09:20:24;7.10;99.90
13336;DHT22;6737;51.480;11.962;2023-02-13T09:22:50;7.10;99.90
13336;DHT22;6737;51.480;11.962;2023-02-13T09:25:16;7.20;99.90
13336;DHT22;6737;51.480;11.962;2023-02-13T09:27:42;7.30;99.90
13336;DHT22;6737;51.480;11.962;2023-02-13T09:30:09;7.30;99.90
13336;DHT22;6737;51.480;11.962;2023-02-13T09:32:36;7.30;99.90
13336;DHT22;6737;51.480;11.962;2023-02-13T09:35:03;7.20;99.90
13336;DHT22;6737;51.480;11.962;2023-02-13T09:37:31;7.20;99.90
13336;DHT22;6737;51.480;11.962;2023-02-13T09:39:57;7.20;99.90
13336;DHT22;6737;51.480;11.962;2023-02-13T09:42:30;7.20;99.90
13336;DHT22;6737;51.480;11.962;2023-02-13T09:45:03;7.20;99.90
13336;DHT22;6737;51.480;11.962;2023-02-13T09:47:38;7.20;99.90
13336;DHT22;6737;51.480;11.962;2023-02-13T09:50:15;7.20;99.90
13336;DHT22;6737;51.480;11.962;2023-02-13T09:52:43;7.20;99.90
13336;DHT22;6737;51.480;11.962;2023-02-13T09:55:16;7.30;99.90
13336;DHT22;6737;51.480;11.962;2023-02-13T09:57:59;7.30;99.90
13336;DHT22;6737;51.480;11.962;2023-02-13T10:00:52;7.40;99.90
13336;DHT22;6737;51.480;11.962;2023-02-13T10:03:31;7.50;99.90
13336;DHT22;6737;51.480;11.962;2023-02-13T10:06:10;7.50;99.90
13336;DHT22;6737;51.480;11.962;2023-02-13T10:08:44;7.50;99.90
13336;DHT22;6737;51.480;11.962;2023-02-13T10:16:50;7.50;99.90
13336;DHT22;6737;51.480;11.962;2023-02-13T10:21:59;7.60;99.90
13336;DHT22;6737;51.480;11.962;2023-02-13T10:24:44;7.60;99.90
13336;DHT22;6737;51.480;11.962;2023-02-13T10:27:23;7.50;99.90
13336;DHT22;6737;51.480;11.962;2023-02-13T10:33:17;7.60;99.90
13336;DHT22;6737;51.480;11.962;2023-02-13T10:38:16;7.60;99.90
13336;DHT22;6737;51.480;11.962;2023-02-13T10:52:53;7.70;99.90
13336;DHT22;6737;51.480;11.962;2023-02-13T11:00:53;7.70;99.90
13336;DHT22;6737;51.480;11.962;2023-02-13T11:03:29;7.70;99.90
13336;DHT22;6737;51.480;11.962;2023-02-13T11:05:57;7.80;99.90
13336;DHT22;6737;51.480;11.962;2023-02-13T11:08:34;7.80;99.90
13336;DHT22;6737;51.480;11.962;2023-02-13T11:11:00;7.80;99.90
13336;DHT22;6737;51.480;11.962;2023-02-13T11:13:28;7.80;99.90
13336;DHT22;6737;51.480;11.962;2023-02-13T11:16:08;7.80;99.90
13336;DHT22;6737;51.480;11.962;2023-02-13T11:18:48;7.80;99.90
13336;DHT22;6737;51.480;11.962;2023-02-13T11:21:29;7.90;99.90
13336;DHT22;6737;51.480;11.962;2023-02-13T11:23:59;7.90;99.90
13336;DHT22;6737;51.480;11.962;2023-02-13T11:28:56;7.90;99.90
13336;DHT22;6737;51.480;11.962;2023-02-13T11:31:29;7.90;99.90
13336;DHT22;6737;51.480;11.962;2023-02-13T11:33:56;7.90;99.90
13336;DHT22;6737;51.480;11.962;2023-02-13T11:41:24;8.00;99.90
13336;DHT22;6737;51.480;11.962;2023-02-13T11:44:26;8.00;99.90
13336;DHT22;6737;51.480;11.962;2023-02-13T11:46:58;8.00;99.90
13336;DHT22;6737;51.480;11.962;2023-02-13T11:49:28;8.00;99.90
13336;DHT22;6737;51.480;11.962;2023-02-13T11:51:56;8.00;99.90
13336;DHT22;6737;51.480;11.962;2023-02-13T11:59:47;8.10;99.90
13336;DHT22;6737;51.480;11.962;2023-02-13T12:02:23;8.10;99.90
13336;DHT22;6737;51.480;11.962;2023-02-13T12:04:51;8.10;99.90
13336;DHT22;6737;51.480;11.962;2023-02-13T12:07:30;8.10;99.90
13336;DHT22;6737;51.480;11.962;2023-02-13T12:12:50;8.20;99.90
13336;DHT22;6737;51.480;11.962;2023-02-13T12:18:01;8.20;99.90
13336;DHT22;6737;51.480;11.962;2023-02-13T12:28:35;8.10;99.90
13336;DHT22;6737;51.480;11.962;2023-02-13T12:36:43;8.10;99.90
13336;DHT22;6737;51.480;11.962;2023-02-13T12:39:24;8.10;99.90
13336;DHT22;6737;51.480;11.962;2023-02-13T12:47:32;8.10;99.90
13336;DHT22;6737;51.480;11.962;2023-02-13T12:50:23;8.10;99.90
13336;DHT22;6737;51.480;11.962;2023-02-13T12:58:48;8.10;99.90
13336;DHT22;6737;51.480;11.962;2023-02-13T13:04:04;8.20;99.90
13336;DHT22;6737;51.480;11.962;2023-02-13T13:09:07;8.10;99.90
13336;DHT22;6737;51.480;11.962;2023-02-13T13:25:42;8.20;99.90
13336;DHT22;6737;51.480;11.962;2023-02-13T13:28:21;8.20;99.90
13336;DHT22;6737;51.480;11.962;2023-02-13T13:30:48;8.20;99.90
13336;DHT22;6737;51.480;11.962;2023-02-13T13:33:17;8.20;99.90
13336;DHT22;6737;51.480;11.962;2023-02-13T13:36:06;8.20;99.90
13336;DHT22;6737;51.480;11.962;2023-02-13T13:41:11;8.30;99.90
13336;DHT22;6737;51.480;11.962;2023-02-13T13:51:28;8.40;99.90
13336;DHT22;6737;51.480;11.962;2023-02-13T13:59:24;8.40;99.90
13336;DHT22;6737;51.480;11.962;2023-02-13T14:07:47;8.40;99.90
13336;DHT22;6737;51.480;11.962;2023-02-13T14:13:05;8.40;99.90
13336;DHT22;6737;51.480;11.962;2023-02-13T14:23:22;8.30;99.90
13336;DHT22;6737;51.480;11.962;2023-02-13T14:33:55;8.20;99.90
13336;DHT22;6737;51.480;11.962;2023-02-13T14:36:26;8.20;99.90
13336;DHT22;6737;51.480;11.962;2023-02-13T14:39:03;8.30;99.90
13336;DHT22;6737;51.480;11.962;2023-02-13T14:44:23;8.30;99.90
13336;DHT22;6737;51.480;11.962;2023-02-13T14:46:51;8.30;99.90
13336;DHT22;6737;51.480;11.962;2023-02-13T14:51:55;8.20;99.90
13336;DHT22;6737;51.480;11.962;2023-02-13T14:54:47;8.20;99.90
13336;DHT22;6737;51.480;11.962;2023-02-13T14:57:20;8.20;99.90
13336;DHT22;6737;51.480;11.962;2023-02-13T14:59:52;8.20;99.90
13336;DHT22;6737;51.480;11.962;2023-02-13T15:02:22;8.20;99.90
13336;DHT22;6737;51.480;11.962;2023-02-13T15:04:57;8.20;99.90
13336;DHT22;6737;51.480;11.962;2023-02-13T15:07:48;8.10;99.90
13336;DHT22;6737;51.480;11.962;2023-02-13T15:10:42;8.10;99.90
13336;DHT22;6737;51.480;11.962;2023-02-13T15:13:21;8.10;99.90
13336;DHT22;6737;51.480;11.962;2023-02-13T15:15:53;8.00;99.90
13336;DHT22;6737;51.480;11.962;2023-02-13T15:18:24;8.10;99.90
13336;DHT22;6737;51.480;11.962;2023-02-13T15:20:54;8.10;99.90
13336;DHT22;6737;51.480;11.962;2023-02-13T15:23:25;8.00;99.90
13336;DHT22;6737;51.480;11.962;2023-02-13T15:26:01;8.00;99.90
13336;DHT22;6737;51.480;11.962;2023-02-13T15:28:28;8.00;99.90
13336;DHT22;6737;51.480;11.962;2023-02-13T15:31:00;8.00;99.90
13336;DHT22;6737;51.480;11.962;2023-02-13T15:33:47;8.00;99.90
13336;DHT22;6737;51.480;11.962;2023-02-13T15:36:21;7.90;99.90
13336;DHT22;6737;51.480;11.962;2023-02-13T15:38:48;7.90;99.90
13336;DHT22;6737;51.480;11.962;2023-02-13T15:41:17;7.90;99.90
13336;DHT22;6737;51.480;11.962;2023-02-13T15:43:46;7.80;99.90
13336;DHT22;6737;51.480;11.962;2023-02-13T15:46:35;7.80;99.90
13336;DHT22;6737;51.480;11.962;2023-02-13T15:49:10;7.80;99.90
13336;DHT22;6737;51.480;11.962;2023-02-13T15:51:37;7.80;99.90
13336;DHT22;6737;51.480;11.962;2023-02-13T15:54:25;7.70;99.90
13336;DHT22;6737;51.480;11.962;2023-02-13T15:56:55;7.70;99.90
13336;DHT22;6737;51.480;11.962;2023-02-13T15:59:22;7.70;99.90
13336;DHT22;6737;51.480;11.962;2023-02-13T16:01:50;7.60;99.90
13336;DHT22;6737;51.480;11.962;2023-02-13T16:04:17;7.60;99.90
13336;DHT22;6737;51.480;11.962;2023-02-13T16:06:45;7.60;99.90
13336;DHT22;6737;51.480;11.962;2023-02-13T16:09:30;7.60;99.90
13336;DHT22;6737;51.480;11.962;2023-02-13T16:12:04;7.60;99.90
13336;DHT22;6737;51.480;11.962;2023-02-13T16:14:34;7.60;99.90
13336;DHT22;6737;51.480;11.962;2023-02-13T16:17:04;7.50;99.90
13336;DHT22;6737;51.480;11.962;2023-02-13T16:22:34;7.50;99.90
13336;DHT22;6737;51.480;11.962;2023-02-13T16:27:46;7.40;99.90
13336;DHT22;6737;51.480;11.962;2023-02-13T16:35:40;7.30;99.90
13336;DHT22;6737;51.480;11.962;2023-02-13T16:38:29;7.30;99.90
13336;DHT22;6737;51.480;11.962;2023-02-13T16:40:58;7.30;99.90
13336;DHT22;6737;51.480;11.962;2023-02-13T16:46:37;7.20;99.90
13336;DHT22;6737;51.480;11.962;2023-02-13T16:57:13;7.10;99.90
13336;DHT22;6737;51.480;11.962;2023-02-13T16:59:53;7.00;99.90
13336;DHT22;6737;51.480;11.962;2023-02-13T17:02:22;7.00;99.90
13336;DHT22;6737;51.480;11.962;2023-02-13T17:04:53;7.00;99.90
13336;DHT22;6737;51.480;11.962;2023-02-13T17:07:30;7.00;99.90
13336;DHT22;6737;51.480;11.962;2023-02-13T17:10:20;7.00;99.90
13336;DHT22;6737;51.480;11.962;2023-02-13T17:12:47;7.00;99.90
13336;DHT22;6737;51.480;11.962;2023-02-13T17:15:16;7.00;99.90
13336;DHT22;6737;51.480;11.962;2023-02-13T17:17:42;6.90;99.90
13336;DHT22;6737;51.480;11.962;2023-02-13T17:20:17;6.90;99.90
13336;DHT22;6737;51.480;11.962;2023-02-13T17:22:46;6.90;99.90
13336;DHT22;6737;51.480;11.962;2023-02-13T17:25:19;6.90;99.90
13336;DHT22;6737;51.480;11.962;2023-02-13T17:27:49;6.90;99.90
13336;DHT22;6737;51.480;11.962;2023-02-13T17:30:50;6.90;99.90
13336;DHT22;6737;51.480;11.962;2023-02-13T17:33:29;6.80;99.90
13336;DHT22;6737;51.480;11.962;2023-02-13T17:35:56;6.80;99.90
13336;DHT22;6737;51.480;11.962;2023-02-13T17:38:23;6.80;99.90
13336;DHT22;6737;51.480;11.962;2023-02-13T17:40:49;6.80;99.90
13336;DHT22;6737;51.480;11.962;2023-02-13T17:43:17;6.80;99.90
13336;DHT22;6737;51.480;11.962;2023-02-13T17:45:44;6.80;99.90
13336;DHT22;6737;51.480;11.962;2023-02-13T17:48:10;6.70;99.90
13336;DHT22;6737;51.480;11.962;2023-02-13T17:50:36;6.60;99.90
13336;DHT22;6737;51.480;11.962;2023-02-13T17:53:05;6.60;99.90
13336;DHT22;6737;51.480;11.962;2023-02-13T17:55:32;6.60;99.90
13336;DHT22;6737;51.480;11.962;2023-02-13T17:57:59;6.60;99.90
13336;DHT22;6737;51.480;11.962;2023-02-13T18:00:29;6.60;99.90
13336;DHT22;6737;51.480;11.962;2023-02-13T18:02:56;6.60;99.90
13336;DHT22;6737;51.480;11.962;2023-02-13T18:05:23;6.50;99.90
13336;DHT22;6737;51.480;11.962;2023-02-13T18:07:49;6.50;99.90
13336;DHT22;6737;51.480;11.962;2023-02-13T18:10:19;6.50;99.90
13336;DHT22;6737;51.480;11.962;2023-02-13T18:12:46;6.50;99.90
13336;DHT22;6737;51.480;11.962;2023-02-13T18:15:13;6.40;99.90
13336;DHT22;6737;51.480;11.962;2023-02-13T18:17:39;6.40;99.90
13336;DHT22;6737;51.480;11.962;2023-02-13T18:20:07;6.40;99.90
13336;DHT22;6737;51.480;11.962;2023-02-13T18:22:34;6.30;99.90
13336;DHT22;6737;51.480;11.962;2023-02-13T18:25:00;6.30;99.90
13336;DHT22;6737;51.480;11.962;2023-02-13T18:27:26;6.10;99.90
13336;DHT22;6737;51.480;11.962;2023-02-13T18:29:54;6.00;99.90
13336;DHT22;6737;51.480;11.962;2023-02-13T18:32:20;5.90;99.90
13336;DHT22;6737;51.480;11.962;2023-02-13T18:34:46;6.00;99.90
13336;DHT22;6737;51.480;11.962;2023-02-13T18:37:13;6.00;99.90
13336;DHT22;6737;51.480;11.962;2023-02-13T18:39:39;6.00;99.90
13336;DHT22;6737;51.480;11.962;2023-02-13T18:42:05;5.80;99.90
13336;DHT22;6737;51.480;11.962;2023-02-13T18:44:31;5.80;99.90
13336;DHT22;6737;51.480;11.962;2023-02-13T18:46:57;5.80;99.90
13336;DHT22;6737;51.480;11.962;2023-02-13T18:49:24;5.80;99.90
13336;DHT22;6737;51.480;11.962;2023-02-13T18:51:50;5.70;99.90
13336;DHT22;6737;51.480;11.962;2023-02-13T18:54:16;5.60;99.90
13336;DHT22;6737;51.480;11.962;2023-02-13T18:56:46;5.50;99.90
13336;DHT22;6737;51.480;11.962;2023-02-13T18:59:12;5.50;99.90
13336;DHT22;6737;51.480;11.962;2023-02-13T19:01:38;5.40;99.90
13336;DHT22;6737;51.480;11.962;2023-02-13T19:04:04;5.30;99.90
13336;DHT22;6737;51.480;11.962;2023-02-13T19:06:31;5.20;99.90
13336;DHT22;6737;51.480;11.962;2023-02-13T19:08:58;5.10;99.90
13336;DHT22;6737;51.480;11.962;2023-02-13T19:11:25;5.00;99.90
13336;DHT22;6737;51.480;11.962;2023-02-13T19:13:56;5.00;99.90
13336;DHT22;6737;51.480;11.962;2023-02-13T19:16:28;5.00;99.90
13336;DHT22;6737;51.480;11.962;2023-02-13T19:18:55;4.90;99.90
13336;DHT22;6737;51.480;11.962;2023-02-13T19:21:27;4.80;99.90
13336;DHT22;6737;51.480;11.962;2023-02-13T19:23:53;4.80;99.90
13336;DHT22;6737;51.480;11.962;2023-02-13T19:26:24;4.70;99.90
13336;DHT22;6737;51.480;11.962;2023-02-13T19:28:51;4.70;99.90
13336;DHT22;6737;51.480;11.962;2023-02-13T19:31:23;4.60;99.90
13336;DHT22;6737;51.480;11.962;2023-02-13T19:33:49;4.60;99.90
13336;DHT22;6737;51.480;11.962;2023-02-13T19:36:21;4.60;99.90